createdAt,value
2022-12-20T00:00:51.724Z,4.08
2022-12-20T00:03:18.410Z,4.17
2022-12-20T00:05:45.088Z,4.06
2022-12-20T00:08:11.632Z,4.01
2022-12-20T00:10:38.889Z,4.01
2022-12-20T00:13:05.881Z,4.05
2022-12-20T00:15:32.398Z,4.09
2022-12-20T00:17:59.135Z,4.01
2022-12-20T00:20:25.878Z,4.02
2022-12-20T00:22:52.352Z,3.86
2022-12-20T00:25:20.418Z,3.94
2022-12-20T00:27:47.490Z,3.92
2022-12-20T00:30:14.316Z,3.98
2022-12-20T00:32:41.209Z,3.93
2022-12-20T00:35:07.829Z,3.92
2022-12-20T00:37:34.304Z,3.94
2022-12-20T00:40:00.791Z,4.10
2022-12-20T00:42:27.546Z,4.00
2022-12-20T00:44:54.047Z,3.97
2022-12-20T00:47:21.316Z,4.02
2022-12-20T00:49:47.934Z,3.97
2022-12-20T00:52:14.408Z,3.79
2022-12-20T00:54:40.905Z,3.85
2022-12-20T00:57:07.465Z,3.85
2022-12-20T00:59:34.169Z,3.97
2022-12-20T01:02:00.782Z,4.12
2022-12-20T01:04:27.560Z,4.10
2022-12-20T01:06:54.096Z,4.01
2022-12-20T01:09:20.609Z,3.72
2022-12-20T01:11:47.099Z,3.87
2022-12-20T01:14:14.888Z,3.82
2022-12-20T01:16:42.598Z,3.99
2022-12-20T01:19:10.649Z,4.14
2022-12-20T01:21:37.146Z,4.02
2022-12-20T01:24:04.236Z,3.96
2022-12-20T01:26:30.747Z,4.04
2022-12-20T01:28:58.280Z,3.99
2022-12-20T01:31:24.890Z,3.85
2022-12-20T01:33:52.452Z,3.93
2022-12-20T01:36:29.498Z,3.86
2022-12-20T01:39:00.508Z,3.88
2022-12-20T01:41:27.937Z,3.74
2022-12-20T01:44:01.631Z,3.83
2022-12-20T01:46:29.349Z,3.92
2022-12-20T01:48:56.965Z,3.91
2022-12-20T01:51:23.468Z,3.86
2022-12-20T01:53:51.076Z,4.07
2022-12-20T01:56:17.564Z,4.06
2022-12-20T01:58:45.003Z,4.00
2022-12-20T02:01:11.571Z,3.94
2022-12-20T02:03:38.227Z,4.13
2022-12-20T02:06:14.088Z,4.13
2022-12-20T02:08:40.548Z,4.11
2022-12-20T02:11:07.357Z,3.98
2022-12-20T02:13:49.321Z,4.07
2022-12-20T02:16:17.863Z,3.88
2022-12-20T02:18:47.322Z,4.04
2022-12-20T02:21:13.819Z,4.27
2022-12-20T02:23:59.437Z,4.20
2022-12-20T02:26:25.939Z,4.10
2022-12-20T02:29:11.399Z,4.16
2022-12-20T02:31:39.332Z,4.19
2022-12-20T02:34:06.064Z,4.24
2022-12-20T02:36:32.660Z,4.15
2022-12-20T02:38:59.132Z,3.98
2022-12-20T02:41:25.560Z,4.00
2022-12-20T02:44:12.497Z,4.09
2022-12-20T02:46:39.239Z,3.96
2022-12-20T02:49:08.825Z,4.01
2022-12-20T02:51:35.371Z,4.07
2022-12-20T02:54:01.923Z,3.88
2022-12-20T02:56:31.688Z,3.79
2022-12-20T02:59:07.419Z,3.77
2022-12-20T03:01:36.731Z,3.82
2022-12-20T03:04:03.930Z,3.85
2022-12-20T03:06:30.898Z,3.79
2022-12-20T03:08:57.720Z,3.79
2022-12-20T03:11:27.373Z,3.79
2022-12-20T03:13:54.071Z,3.87
2022-12-20T03:16:20.696Z,3.95
2022-12-20T03:18:48.207Z,3.88
2022-12-20T03:21:14.749Z,3.91
2022-12-20T03:23:41.271Z,3.88
2022-12-20T03:26:07.855Z,3.87
2022-12-20T03:28:39.434Z,3.99
2022-12-20T03:31:07.589Z,3.80
2022-12-20T03:33:42.212Z,4.03
2022-12-20T03:36:08.817Z,3.93
2022-12-20T03:38:36.275Z,4.03
2022-12-20T03:41:05.154Z,4.06
2022-12-20T03:43:31.711Z,4.03
2022-12-20T03:45:58.313Z,4.11
2022-12-20T03:48:26.077Z,3.99
2022-12-20T03:50:52.596Z,4.14
2022-12-20T03:53:19.122Z,4.21
2022-12-20T03:55:45.924Z,4.18
2022-12-20T03:58:13.448Z,4.11
2022-12-20T04:00:39.956Z,4.20
2022-12-20T04:03:26.521Z,4.23
2022-12-20T04:05:54.155Z,4.25
2022-12-20T04:08:21.236Z,4.21
2022-12-20T04:11:08.445Z,4.12
2022-12-20T04:13:36.598Z,3.94
2022-12-20T04:16:04.022Z,4.05
2022-12-20T04:18:32.596Z,4.16
2022-12-20T04:21:00.734Z,4.22
2022-12-20T04:23:29.686Z,4.36
2022-12-20T04:25:56.503Z,4.10
2022-12-20T04:28:23.133Z,4.12
2022-12-20T04:30:51.197Z,4.06
2022-12-20T04:33:23.430Z,4.06
2022-12-20T04:35:50.113Z,4.15
2022-12-20T04:38:16.841Z,4.22
2022-12-20T04:40:44.448Z,4.19
2022-12-20T04:43:10.987Z,4.13
2022-12-20T04:45:38.743Z,4.11
2022-12-20T04:48:36.944Z,4.05
2022-12-20T04:50:52.164Z,4.04
2022-12-20T04:53:37.335Z,3.87
2022-12-20T04:56:04.146Z,3.87
2022-12-20T04:58:30.932Z,3.68
2022-12-20T05:00:59.305Z,3.76
2022-12-20T05:03:29.856Z,3.76
2022-12-20T05:05:56.607Z,3.69
2022-12-20T05:08:23.531Z,3.82
2022-12-20T05:10:52.016Z,3.82
2022-12-20T05:13:18.644Z,3.76
2022-12-20T05:15:46.422Z,3.84
2022-12-20T05:18:13.017Z,3.90
2022-12-20T05:21:15.340Z,3.94
2022-12-20T05:24:02.889Z,4.01
2022-12-20T05:26:33.032Z,3.91
2022-12-20T05:29:00.862Z,3.83
2022-12-20T05:31:27.962Z,3.85
2022-12-20T05:33:54.680Z,3.92
2022-12-20T05:36:22.828Z,4.05
2022-12-20T05:38:50.106Z,4.18
2022-12-20T05:41:18.919Z,4.12
2022-12-20T05:43:48.774Z,4.14
2022-12-20T05:46:15.540Z,4.24
2022-12-20T05:48:53.268Z,4.23
2022-12-20T05:51:19.899Z,4.33
2022-12-20T05:53:56.621Z,4.18
2022-12-20T05:56:37.894Z,4.16
2022-12-20T05:59:09.491Z,4.16
2022-12-20T06:01:37.214Z,4.10
2022-12-20T06:04:05.136Z,4.15
2022-12-20T06:06:32.760Z,4.20
2022-12-20T06:08:59.560Z,4.30
2022-12-20T06:11:49.109Z,4.50
2022-12-20T06:14:15.642Z,4.48
2022-12-20T06:16:47.530Z,4.45
2022-12-20T06:19:21.427Z,4.40
2022-12-20T06:21:49.539Z,4.46
2022-12-20T06:24:19.096Z,4.54
2022-12-20T06:26:45.855Z,4.45
2022-12-20T06:29:14.376Z,4.47
2022-12-20T06:31:45.865Z,4.52
2022-12-20T06:34:13.191Z,4.52
2022-12-20T06:36:41.516Z,4.43
2022-12-20T06:39:13.221Z,4.48
2022-12-20T06:41:47.647Z,4.42
2022-12-20T06:44:14.179Z,4.38
2022-12-20T06:46:40.775Z,4.47
2022-12-20T06:49:07.301Z,4.43
2022-12-20T06:51:33.834Z,4.48
2022-12-20T06:54:00.550Z,4.47
2022-12-20T06:56:32.597Z,4.55
2022-12-20T06:59:04.936Z,4.37
2022-12-20T07:01:31.653Z,4.40
2022-12-20T07:03:58.181Z,4.51
2022-12-20T07:06:24.674Z,4.77
2022-12-20T07:08:51.190Z,4.54
2022-12-20T07:11:18.537Z,4.51
2022-12-20T07:13:45.056Z,4.61
2022-12-20T07:16:11.678Z,4.43
2022-12-20T07:18:38.227Z,4.42
2022-12-20T07:21:05.363Z,4.39
2022-12-20T07:23:32.063Z,4.29
2022-12-20T07:25:59.420Z,4.26
2022-12-20T07:28:26.275Z,4.19
2022-12-20T07:30:52.933Z,4.16
2022-12-20T07:33:19.749Z,4.03
2022-12-20T07:35:52.440Z,4.31
2022-12-20T07:38:20.852Z,4.40
2022-12-20T07:40:47.375Z,4.54
2022-12-20T07:43:13.904Z,4.63
2022-12-20T07:45:40.469Z,4.64
2022-12-20T07:48:12.357Z,4.98
2022-12-20T07:50:41.829Z,4.97
2022-12-20T07:53:08.370Z,4.91
2022-12-20T07:55:36.543Z,4.95
2022-12-20T07:58:05.456Z,5.06
2022-12-20T08:00:31.974Z,5.07
2022-12-20T08:03:03.210Z,5.18
2022-12-20T08:05:32.449Z,5.13
2022-12-20T08:08:04.185Z,5.17
2022-12-20T08:10:32.750Z,5.18
2022-12-20T08:12:59.241Z,5.04
2022-12-20T08:15:25.846Z,4.94
2022-12-20T08:17:52.392Z,5.08
2022-12-20T08:20:19.059Z,5.16
2022-12-20T08:22:45.596Z,5.16
2022-12-20T08:25:12.156Z,5.30
2022-12-20T08:27:38.680Z,5.49
2022-12-20T08:30:05.875Z,5.42
2022-12-20T08:32:32.496Z,5.37
2022-12-20T08:34:59.018Z,5.38
2022-12-20T08:37:25.511Z,5.64
2022-12-20T08:39:52.015Z,5.66
2022-12-20T08:42:18.536Z,5.73
2022-12-20T08:44:45.089Z,5.70
2022-12-20T08:47:11.677Z,5.90
2022-12-20T08:49:43.991Z,5.90
2022-12-20T08:52:13.790Z,5.84
2022-12-20T08:54:40.284Z,6.01
2022-12-20T08:57:06.789Z,6.09
2022-12-20T08:59:33.280Z,5.98
2022-12-20T09:01:59.941Z,6.15
2022-12-20T09:04:26.597Z,6.17
2022-12-20T09:06:53.091Z,6.29
2022-12-20T09:09:19.687Z,6.25
2022-12-20T09:11:46.221Z,6.31
2022-12-20T09:14:12.743Z,6.30
2022-12-20T09:16:39.291Z,6.03
2022-12-20T09:19:06.674Z,5.98
2022-12-20T09:21:34.133Z,6.03
2022-12-20T09:24:00.674Z,6.03
2022-12-20T09:26:27.231Z,6.09
2022-12-20T09:28:54.067Z,6.05
2022-12-20T09:31:21.792Z,5.99
2022-12-20T09:33:48.446Z,6.05
2022-12-20T09:36:15.906Z,6.16
2022-12-20T09:38:42.450Z,6.24
2022-12-20T09:41:26.972Z,6.31
2022-12-20T09:43:53.634Z,6.32
2022-12-20T09:46:20.362Z,6.37
2022-12-20T09:48:46.923Z,6.41
2022-12-20T09:51:18.757Z,6.34
2022-12-20T09:53:57.433Z,6.25
2022-12-20T09:56:33.531Z,6.28
2022-12-20T09:59:01.667Z,6.37
2022-12-20T10:01:36.261Z,6.41
2022-12-20T10:04:12.989Z,6.40
2022-12-20T10:06:39.720Z,6.59
2022-12-20T10:09:10.589Z,6.67
2022-12-20T10:11:46.337Z,6.77
2022-12-20T10:14:29.016Z,6.73
2022-12-20T10:17:04.251Z,6.80
2022-12-20T10:19:36.595Z,6.78
2022-12-20T10:22:14.601Z,6.81
2022-12-20T10:24:41.519Z,6.83
2022-12-20T10:27:17.277Z,6.79
2022-12-20T10:29:43.981Z,6.75
2022-12-20T10:32:12.840Z,6.84
2022-12-20T10:34:46.666Z,6.74
2022-12-20T10:37:16.208Z,6.77
2022-12-20T10:39:43.612Z,6.72
2022-12-20T10:42:28.819Z,6.78
2022-12-20T10:44:55.508Z,6.79
2022-12-20T10:47:24.775Z,6.78
2022-12-20T10:49:51.311Z,6.80
2022-12-20T10:52:18.401Z,6.91
2022-12-20T10:54:45.756Z,6.93
2022-12-20T10:57:22.544Z,6.92
2022-12-20T10:59:50.157Z,6.73
2022-12-20T11:02:22.329Z,6.71
2022-12-20T11:04:59.959Z,6.78
2022-12-20T11:07:27.685Z,6.77
2022-12-20T11:09:58.348Z,6.90
2022-12-20T11:12:25.019Z,6.87
2022-12-20T11:14:51.966Z,6.90
2022-12-20T11:17:24.135Z,7.05
2022-12-20T11:20:09.328Z,7.23
2022-12-20T11:23:04.949Z,7.48
2022-12-20T11:25:31.390Z,7.79
2022-12-20T11:27:57.879Z,7.85
2022-12-20T11:30:25.212Z,7.88
2022-12-20T11:33:15.861Z,7.90
2022-12-20T11:35:54.707Z,7.86
2022-12-20T11:38:36.127Z,7.93
2022-12-20T11:41:20.712Z,8.02
2022-12-20T11:44:23.180Z,8.03
2022-12-20T11:46:46.669Z,8.26
2022-12-20T11:49:13.161Z,8.28
2022-12-20T11:51:43.661Z,8.28
2022-12-20T11:54:15.167Z,8.36
2022-12-20T11:56:45.309Z,8.41
2022-12-20T11:59:20.339Z,8.31
2022-12-20T12:01:48.611Z,8.40
2022-12-20T12:04:20.319Z,8.29
2022-12-20T12:06:52.507Z,8.04
2022-12-20T12:09:24.149Z,7.92
2022-12-20T12:12:09.632Z,8.02
2022-12-20T12:14:43.798Z,8.16
2022-12-20T12:17:13.420Z,8.20
2022-12-20T12:19:41.172Z,8.04
2022-12-20T12:22:10.073Z,7.89
2022-12-20T12:24:39.257Z,7.96
2022-12-20T12:27:08.004Z,7.77
2022-12-20T12:29:37.774Z,7.75
2022-12-20T12:32:13.789Z,7.61
2022-12-20T12:35:00.550Z,7.59
2022-12-20T12:37:27.661Z,7.89
2022-12-20T12:40:17.476Z,7.94
2022-12-20T12:42:43.945Z,8.08
2022-12-20T12:45:19.966Z,8.12
2022-12-20T12:47:46.577Z,8.36
2022-12-20T12:50:36.832Z,8.53
2022-12-20T12:53:07.772Z,8.60
2022-12-20T12:55:39.251Z,8.54
2022-12-20T13:01:13.730Z,8.38
2022-12-20T13:03:44.641Z,8.36
2022-12-20T13:06:23.659Z,8.27
2022-12-20T13:09:10.706Z,8.18
2022-12-20T13:11:46.623Z,8.15
2022-12-20T13:14:17.091Z,8.18
2022-12-20T13:19:40.587Z,8.35
2022-12-20T13:22:13.055Z,8.35
2022-12-20T13:24:46.708Z,8.42
2022-12-20T13:27:22.870Z,8.47
2022-12-20T13:29:54.699Z,8.52
2022-12-20T13:32:40.038Z,8.41
2022-12-20T13:35:27.037Z,8.34
2022-12-20T13:37:54.972Z,8.37
2022-12-20T13:40:26.980Z,8.24
2022-12-20T13:42:54.037Z,8.27
2022-12-20T13:45:20.622Z,7.97
2022-12-20T13:47:48.721Z,7.90
2022-12-20T13:50:22.825Z,7.81
2022-12-20T13:52:49.347Z,7.70
2022-12-20T13:55:16.859Z,7.81
2022-12-20T13:57:43.804Z,8.04
2022-12-20T14:00:23.627Z,7.86
2022-12-20T14:02:50.387Z,7.74
2022-12-20T14:05:26.450Z,8.04
2022-12-20T14:07:58.059Z,8.08
2022-12-20T14:10:25.328Z,8.13
2022-12-20T14:12:52.320Z,8.18
2022-12-20T14:15:22.183Z,8.21
2022-12-20T14:17:48.668Z,8.28
2022-12-20T14:20:16.318Z,8.41
2022-12-20T14:22:46.976Z,8.50
2022-12-20T14:25:14.757Z,8.50
2022-12-20T14:27:41.235Z,8.55
2022-12-20T14:30:25.113Z,8.51
2022-12-20T14:32:51.610Z,8.44
2022-12-20T14:35:20.886Z,8.25
2022-12-20T14:37:55.014Z,8.31
2022-12-20T14:40:21.625Z,8.28
2022-12-20T14:42:48.124Z,8.36
2022-12-20T14:45:14.609Z,8.41
2022-12-20T14:47:51.307Z,8.39
2022-12-20T14:50:19.243Z,8.23
2022-12-20T14:52:46.134Z,8.26
2022-12-20T14:55:32.959Z,8.01
2022-12-20T14:57:59.565Z,8.00
2022-12-20T15:00:29.148Z,8.00
2022-12-20T15:02:55.920Z,7.89
2022-12-20T15:05:40.773Z,7.85
2022-12-20T15:08:10.976Z,7.69
2022-12-20T15:10:37.475Z,7.58
2022-12-20T15:13:11.783Z,7.37
2022-12-20T15:15:38.459Z,7.36
2022-12-20T15:18:14.957Z,7.28
2022-12-20T15:20:41.949Z,7.24
2022-12-20T15:23:15.593Z,7.14
2022-12-20T15:25:43.737Z,7.04
2022-12-20T15:28:17.259Z,7.15
2022-12-20T15:30:47.222Z,7.26
2022-12-20T15:33:18.142Z,7.24
2022-12-20T15:35:45.056Z,7.30
2022-12-20T15:38:16.688Z,7.28
2022-12-20T15:40:44.038Z,7.38
2022-12-20T15:43:14.019Z,7.42
2022-12-20T15:45:40.929Z,7.46
2022-12-20T15:48:14.757Z,7.39
2022-12-20T15:50:43.167Z,7.37
2022-12-20T15:53:12.541Z,7.28
2022-12-20T15:55:41.536Z,7.39
2022-12-20T15:58:08.971Z,7.38
2022-12-20T16:00:37.471Z,7.26
2022-12-20T16:03:04.124Z,7.12
2022-12-20T16:05:30.813Z,7.10
2022-12-20T16:07:57.315Z,7.08
2022-12-20T16:10:23.969Z,7.03
2022-12-20T16:12:50.537Z,7.12
2022-12-20T16:15:20.640Z,7.19
2022-12-20T16:17:47.137Z,7.17
2022-12-20T16:20:13.760Z,7.13
2022-12-20T16:22:40.295Z,7.04
2022-12-20T16:25:07.055Z,6.86
2022-12-20T16:27:33.528Z,6.94
2022-12-20T16:29:59.992Z,6.87
2022-12-20T16:32:26.487Z,6.90
2022-12-20T16:34:52.971Z,6.89
2022-12-20T16:37:19.588Z,6.92
2022-12-20T16:39:46.032Z,6.85
2022-12-20T16:42:17.096Z,6.78
2022-12-20T16:44:45.559Z,6.77
2022-12-20T16:47:12.765Z,6.79
2022-12-20T16:49:40.292Z,6.71
2022-12-20T16:52:09.806Z,6.73
2022-12-20T16:54:36.404Z,6.91
2022-12-20T16:57:02.888Z,6.99
2022-12-20T16:59:29.354Z,7.06
2022-12-20T17:01:57.022Z,7.12
2022-12-20T17:04:24.040Z,7.33
2022-12-20T17:06:50.561Z,7.36
2022-12-20T17:09:17.640Z,7.43
2022-12-20T17:11:44.200Z,7.59
2022-12-20T17:14:12.880Z,7.69
2022-12-20T17:16:39.936Z,7.64
2022-12-20T17:19:06.477Z,7.51
2022-12-20T17:24:18.346Z,7.53
2022-12-20T17:26:44.934Z,7.51
2022-12-20T17:29:11.628Z,7.72
2022-12-20T17:31:39.356Z,7.68
2022-12-20T17:34:26.349Z,7.77
2022-12-20T17:36:54.301Z,7.77
2022-12-20T17:39:21.246Z,7.66
2022-12-20T17:41:47.737Z,7.76
2022-12-20T17:44:17.169Z,7.81
2022-12-20T17:49:29.556Z,8.03
2022-12-20T17:51:56.749Z,8.03
2022-12-20T17:54:24.236Z,7.99
2022-12-20T17:56:51.024Z,7.78
2022-12-20T17:59:18.224Z,8.01
2022-12-20T18:01:44.993Z,8.02
2022-12-20T18:04:19.458Z,8.00
2022-12-20T18:06:50.324Z,8.06
2022-12-20T18:09:18.597Z,8.05
2022-12-20T18:11:47.780Z,8.18
2022-12-20T18:14:14.335Z,8.20
2022-12-20T18:16:40.936Z,8.31
2022-12-20T18:19:08.156Z,8.40
2022-12-20T18:21:34.980Z,8.56
2022-12-20T18:24:01.520Z,8.54
2022-12-20T18:26:31.232Z,8.57
2022-12-20T18:28:59.598Z,8.54
2022-12-20T18:31:26.856Z,8.49
2022-12-20T18:33:57.719Z,8.44
2022-12-20T18:36:28.860Z,8.37
2022-12-20T18:38:55.740Z,8.35
2022-12-20T18:41:24.077Z,8.27
2022-12-20T18:43:51.043Z,8.25
2022-12-20T18:46:18.721Z,8.22
2022-12-20T18:48:48.311Z,8.01
2022-12-20T18:51:15.557Z,7.75
2022-12-20T18:53:42.739Z,7.72
2022-12-20T18:56:14.444Z,7.57
2022-12-20T18:58:41.279Z,7.60
2022-12-20T19:01:10.327Z,7.64
2022-12-20T19:03:36.967Z,7.68
2022-12-20T19:06:03.592Z,7.70
2022-12-20T19:08:30.239Z,7.64
2022-12-20T19:11:00.267Z,7.64
2022-12-20T19:13:26.841Z,7.60
2022-12-20T19:16:02.715Z,7.65
2022-12-20T19:18:29.272Z,7.67
2022-12-20T19:20:55.860Z,7.60
2022-12-20T19:23:22.582Z,7.79
2022-12-20T19:25:49.122Z,7.86
2022-12-20T19:28:15.602Z,7.81
2022-12-20T19:30:42.141Z,7.81
2022-12-20T19:33:09.131Z,7.64
2022-12-20T19:38:22.058Z,7.69
2022-12-20T19:40:53.356Z,7.63
2022-12-20T19:43:20.188Z,7.73
2022-12-20T19:45:46.747Z,7.78
2022-12-20T19:54:13.307Z,8.10
2022-12-20T19:59:37.165Z,8.16
2022-12-20T20:02:03.875Z,8.01
2022-12-20T20:04:30.878Z,8.07
2022-12-20T20:06:57.520Z,8.12
2022-12-20T20:09:24.204Z,8.12
2022-12-20T20:11:50.797Z,8.19
2022-12-20T20:14:17.335Z,8.08
2022-12-20T20:16:44.060Z,8.12
2022-12-20T20:19:10.726Z,8.16
2022-12-20T20:21:37.986Z,8.13
2022-12-20T20:24:04.767Z,8.12
2022-12-20T20:26:31.865Z,8.13
2022-12-20T20:28:58.477Z,7.97
2022-12-20T20:31:25.092Z,7.98
2022-12-20T20:33:51.734Z,7.65
2022-12-20T20:36:19.502Z,7.65
2022-12-20T20:38:47.183Z,7.65
2022-12-20T20:41:14.323Z,7.30
2022-12-20T20:43:40.872Z,7.20
2022-12-20T20:46:08.034Z,7.22
2022-12-20T20:48:34.798Z,7.38
2022-12-20T20:51:01.374Z,7.35
2022-12-20T20:53:33.543Z,7.00
2022-12-20T20:56:01.365Z,7.14
2022-12-20T20:58:27.978Z,7.23
2022-12-20T21:00:59.043Z,7.32
2022-12-20T21:03:27.363Z,7.24
2022-12-20T21:08:41.000Z,7.20
2022-12-20T21:11:07.820Z,7.36
2022-12-20T21:13:34.742Z,7.34
2022-12-20T21:16:08.315Z,7.23
2022-12-20T21:18:34.988Z,7.32
2022-12-20T21:21:08.465Z,7.14
2022-12-20T21:23:35.087Z,7.11
2022-12-20T21:26:01.749Z,7.19
2022-12-20T21:28:28.306Z,7.30
2022-12-20T21:30:59.159Z,7.36
2022-12-20T21:33:25.765Z,7.40
2022-12-20T21:35:59.191Z,7.35
2022-12-20T21:38:25.896Z,7.21
2022-12-20T21:40:52.412Z,7.11
2022-12-20T21:43:18.956Z,7.11
2022-12-20T21:45:49.759Z,7.17
2022-12-20T21:48:16.746Z,7.04
2022-12-20T21:50:43.312Z,7.10
2022-12-20T21:53:12.841Z,7.19
2022-12-20T21:55:44.066Z,7.14
2022-12-20T21:58:10.596Z,7.19
2022-12-20T22:00:37.172Z,7.21
2022-12-20T22:03:04.705Z,7.22
2022-12-20T22:05:31.341Z,7.26
2022-12-20T22:07:57.905Z,7.09
2022-12-20T22:10:24.443Z,7.23
2022-12-20T22:12:50.986Z,7.14
2022-12-20T22:15:17.741Z,7.07
2022-12-20T22:17:45.057Z,7.11
2022-12-20T22:20:13.161Z,7.01
2022-12-20T22:22:39.782Z,7.15
2022-12-20T22:25:06.359Z,7.02
2022-12-20T22:27:32.943Z,7.19
2022-12-20T22:29:59.490Z,7.19
2022-12-20T22:32:26.097Z,7.22
2022-12-20T22:34:52.618Z,7.14
2022-12-20T22:37:19.165Z,7.13
2022-12-20T22:39:45.725Z,7.16
2022-12-20T22:42:12.480Z,7.03
2022-12-20T22:44:39.445Z,7.06
2022-12-20T22:47:06.224Z,7.08
2022-12-20T22:49:32.998Z,7.06
2022-12-20T22:52:07.213Z,7.13
2022-12-20T22:54:34.361Z,7.17
2022-12-20T22:57:01.109Z,7.23
2022-12-20T22:59:28.139Z,7.09
2022-12-20T23:01:55.311Z,7.07
2022-12-20T23:04:22.076Z,7.08
2022-12-20T23:06:48.686Z,7.10
2022-12-20T23:09:15.227Z,7.09
2022-12-20T23:12:00.710Z,7.19
2022-12-20T23:14:45.902Z,7.28
2022-12-20T23:17:12.661Z,7.46
2022-12-20T23:19:58.051Z,7.37
2022-12-20T23:22:40.470Z,7.16
2022-12-20T23:25:08.420Z,7.15
2022-12-20T23:27:35.369Z,7.13
2022-12-20T23:30:02.713Z,7.01
2022-12-20T23:32:29.368Z,7.13
2022-12-20T23:34:56.004Z,7.08
2022-12-20T23:37:33.774Z,7.03
2022-12-20T23:40:02.342Z,7.04
2022-12-20T23:42:29.277Z,6.96
2022-12-20T23:44:55.788Z,6.97
2022-12-20T23:47:22.445Z,6.98
2022-12-20T23:49:49.086Z,7.09
2022-12-20T23:52:15.716Z,7.21
2022-12-20T23:54:42.515Z,7.31
2022-12-20T23:57:09.001Z,7.28
2022-12-20T23:59:35.560Z,7.46
